createdAt,value
2023-02-24T00:00:07.558Z,13.73
2023-02-24T00:04:12.724Z,17.37
2023-02-24T00:08:14.217Z,20.37
2023-02-24T00:12:16.401Z,25.00
2023-02-24T00:16:17.868Z,26.17
2023-02-24T00:20:21.184Z,23.90
2023-02-24T00:24:22.745Z,26.30
2023-02-24T00:28:24.216Z,27.17
2023-02-24T00:32:25.977Z,25.80
2023-02-24T00:36:30.800Z,24.67
2023-02-24T00:40:32.281Z,22.83
2023-02-24T00:44:35.834Z,23.97
2023-02-24T00:48:38.516Z,23.67
2023-02-24T00:52:41.258Z,24.77
2023-02-24T00:56:44.139Z,23.00
2023-02-24T01:00:45.639Z,22.37
2023-02-24T01:04:47.098Z,23.13
2023-02-24T01:08:52.136Z,23.23
2023-02-24T01:12:53.792Z,20.50
2023-02-24T01:16:56.134Z,18.83
2023-02-24T01:20:58.175Z,21.23
2023-02-24T01:25:00.881Z,19.37
2023-02-24T01:29:02.470Z,17.00
2023-02-24T01:33:04.245Z,14.27
2023-02-24T01:37:05.756Z,12.83
2023-02-24T01:41:10.293Z,13.60
2023-02-24T01:45:15.891Z,11.83
2023-02-24T01:49:20.902Z,13.53
2023-02-24T01:53:22.343Z,13.83
2023-02-24T01:57:31.211Z,14.53
2023-02-24T02:01:32.767Z,15.03
2023-02-24T02:05:34.588Z,15.37
2023-02-24T02:09:36.403Z,15.77
2023-02-24T02:13:43.053Z,16.30
2023-02-24T02:17:55.777Z,15.53
2023-02-24T02:22:33.629Z,15.73
2023-02-24T02:27:00.793Z,15.07
2023-02-24T02:31:23.121Z,14.73
2023-02-24T02:35:28.872Z,15.47
2023-02-24T02:39:42.726Z,13.27
2023-02-24T02:43:51.123Z,12.50
2023-02-24T02:47:59.207Z,12.70
2023-02-24T02:52:06.807Z,12.17
2023-02-24T02:56:12.713Z,15.77
2023-02-24T03:00:19.153Z,15.17
2023-02-24T03:04:22.674Z,14.50
2023-02-24T03:08:29.900Z,13.03
2023-02-24T03:12:33.694Z,12.83
2023-02-24T03:16:35.406Z,11.23
2023-02-24T03:20:42.278Z,9.63
2023-02-24T03:24:45.851Z,10.53
2023-02-24T03:28:53.654Z,9.57
2023-02-24T03:33:00.160Z,9.90
2023-02-24T03:37:01.650Z,9.73
2023-02-24T03:41:04.989Z,8.60
2023-02-24T03:45:08.434Z,8.27
2023-02-24T03:49:13.272Z,8.07
2023-02-24T03:53:28.426Z,7.87
2023-02-24T03:57:41.880Z,6.83
2023-02-24T04:01:50.840Z,5.30
2023-02-24T04:06:06.206Z,5.23
2023-02-24T04:10:15.543Z,4.63
2023-02-24T04:14:24.107Z,3.90
2023-02-24T04:18:29.285Z,5.17
2023-02-24T04:22:31.186Z,4.10
2023-02-24T04:26:36.200Z,3.53
2023-02-24T04:30:43.515Z,3.63
2023-02-24T04:34:45.059Z,4.00
2023-02-24T04:38:46.851Z,2.97
2023-02-24T04:42:49.673Z,4.23
2023-02-24T04:46:52.457Z,3.40
2023-02-24T04:50:53.841Z,3.33
2023-02-24T04:54:55.285Z,4.23
2023-02-24T04:58:57.157Z,3.10
2023-02-24T05:03:01.427Z,3.40
2023-02-24T05:07:02.925Z,3.33
2023-02-24T05:11:04.471Z,3.27
2023-02-24T05:15:09.113Z,3.67
2023-02-24T05:19:14.172Z,3.80
2023-02-24T05:23:16.614Z,2.73
2023-02-24T05:27:18.232Z,3.00
2023-02-24T05:31:22.079Z,3.00
2023-02-24T05:35:25.073Z,3.00
2023-02-24T05:39:26.948Z,3.13
2023-02-24T05:43:28.353Z,3.00
2023-02-24T05:47:29.852Z,3.70
2023-02-24T05:51:33.071Z,2.70
2023-02-24T05:55:34.485Z,2.77
2023-02-24T05:59:35.993Z,3.23
2023-02-24T06:03:37.384Z,3.30
2023-02-24T06:07:40.152Z,3.50
2023-02-24T06:11:42.986Z,3.17
2023-02-24T06:15:45.493Z,3.50
2023-02-24T06:19:50.891Z,3.10
2023-02-24T06:23:53.674Z,2.67
2023-02-24T06:27:56.375Z,3.00
2023-02-24T06:31:57.884Z,2.83
2023-02-24T06:35:59.814Z,3.37
2023-02-24T06:40:02.708Z,2.77
2023-02-24T06:44:04.594Z,3.30
2023-02-24T06:48:06.309Z,3.03
2023-02-24T06:52:08.243Z,3.67
2023-02-24T06:56:12.342Z,4.20
2023-02-24T07:00:14.317Z,3.83
2023-02-24T07:04:17.572Z,3.07
2023-02-24T07:08:20.825Z,3.50
2023-02-24T07:12:23.776Z,3.10
2023-02-24T07:16:25.884Z,3.40
2023-02-24T07:20:27.259Z,3.70
2023-02-24T07:24:30.636Z,3.00
2023-02-24T07:28:33.424Z,3.30
2023-02-24T07:32:34.947Z,4.07
2023-02-24T07:36:36.598Z,3.03
2023-02-24T07:40:39.007Z,3.10
2023-02-24T07:44:41.735Z,3.40
2023-02-24T07:48:43.102Z,3.60
2023-02-24T07:52:45.898Z,3.50
2023-02-24T07:56:47.550Z,2.73
2023-02-24T08:00:50.324Z,3.40
2023-02-24T08:04:51.997Z,3.20
2023-02-24T08:08:55.423Z,2.97
2023-02-24T08:12:56.999Z,2.67
2023-02-24T08:16:59.773Z,3.40
2023-02-24T08:21:01.185Z,4.17
2023-02-24T08:25:03.400Z,4.17
2023-02-24T08:29:04.817Z,4.43
2023-02-24T08:33:09.741Z,4.50
2023-02-24T08:37:11.237Z,5.13
2023-02-24T08:41:14.475Z,3.93
2023-02-24T08:45:15.998Z,4.53
2023-02-24T08:49:19.448Z,3.70
2023-02-24T08:53:21.536Z,3.43
2023-02-24T08:57:22.994Z,3.50
2023-02-24T09:01:27.843Z,3.53
2023-02-24T09:05:30.697Z,2.87
2023-02-24T09:09:32.208Z,3.30
2023-02-24T09:13:35.188Z,3.27
2023-02-24T09:17:36.879Z,2.63
2023-02-24T09:21:40.070Z,2.90
2023-02-24T09:25:41.594Z,2.73
2023-02-24T09:29:43.200Z,3.23
2023-02-24T09:33:44.649Z,3.20
2023-02-24T09:37:47.415Z,2.47
2023-02-24T09:41:51.231Z,2.97
2023-02-24T09:45:59.440Z,2.57
2023-02-24T09:50:10.772Z,2.87
2023-02-24T09:54:16.666Z,2.97
2023-02-24T09:58:26.953Z,3.70
2023-02-24T10:02:43.895Z,3.13
2023-02-24T10:06:48.680Z,2.90
2023-02-24T10:10:53.612Z,3.13
2023-02-24T10:15:00.933Z,3.30
2023-02-24T10:19:10.578Z,3.40
2023-02-24T10:23:17.977Z,3.57
2023-02-24T10:27:24.044Z,3.53
2023-02-24T10:31:30.013Z,3.03
2023-02-24T10:35:31.729Z,2.90
2023-02-24T10:39:35.502Z,2.93
2023-02-24T10:43:38.726Z,3.07
2023-02-24T10:47:40.668Z,3.27
2023-02-24T10:51:47.066Z,2.97
2023-02-24T10:55:48.824Z,3.20
2023-02-24T10:59:57.495Z,2.53
2023-02-24T11:04:02.807Z,2.90
2023-02-24T11:08:06.517Z,3.20
2023-02-24T11:12:15.243Z,2.57
2023-02-24T11:16:18.653Z,3.30
2023-02-24T11:20:48.370Z,3.33
2023-02-24T11:24:52.010Z,2.80
2023-02-24T11:29:03.585Z,2.60
2023-02-24T11:33:19.239Z,3.20
2023-02-24T11:37:31.322Z,3.93
2023-02-24T11:41:37.019Z,3.13
2023-02-24T11:45:43.239Z,3.67
2023-02-24T11:49:50.327Z,3.50
2023-02-24T11:53:55.707Z,3.20
2023-02-24T11:57:59.386Z,3.03
2023-02-24T12:02:12.746Z,3.30
2023-02-24T12:06:22.499Z,3.33
2023-02-24T12:10:27.756Z,3.03
2023-02-24T12:14:35.804Z,3.30
2023-02-24T12:18:39.296Z,3.50
2023-02-24T12:22:48.385Z,3.30
2023-02-24T12:27:02.685Z,3.20
2023-02-24T12:31:10.522Z,3.03
2023-02-24T12:35:19.863Z,3.67
2023-02-24T12:39:28.980Z,2.80
2023-02-24T12:43:35.731Z,3.23
2023-02-24T12:47:44.388Z,4.23
2023-02-24T12:51:55.993Z,4.37
2023-02-24T12:56:07.281Z,3.93
2023-02-24T13:00:13.836Z,3.90
2023-02-24T13:04:29.465Z,3.60
2023-02-24T13:08:43.587Z,4.23
2023-02-24T13:12:53.666Z,4.47
2023-02-24T13:17:05.063Z,4.07
2023-02-24T13:21:09.627Z,4.13
2023-02-24T13:25:19.597Z,4.43
2023-02-24T13:29:22.456Z,4.17
2023-02-24T13:33:28.600Z,4.53
2023-02-24T13:37:37.408Z,4.50
2023-02-24T13:41:40.374Z,4.43
2023-02-24T13:45:55.787Z,4.17
2023-02-24T13:50:16.397Z,4.37
2023-02-24T13:54:40.769Z,4.37
2023-02-24T13:59:20.596Z,3.70
2023-02-24T14:03:26.860Z,3.90
2023-02-24T14:07:31.499Z,3.60
2023-02-24T14:11:36.876Z,3.20
2023-02-24T14:15:42.698Z,3.17
2023-02-24T14:19:45.455Z,3.47
2023-02-24T14:23:55.742Z,2.90
2023-02-24T14:27:57.754Z,3.23
2023-02-24T14:32:00.019Z,3.00
2023-02-24T14:36:04.682Z,3.53
2023-02-24T14:40:15.142Z,3.67
2023-02-24T14:44:22.911Z,3.33
2023-02-24T14:48:26.252Z,3.50
2023-02-24T14:52:35.409Z,4.07
2023-02-24T14:56:37.204Z,3.37
2023-02-24T15:00:43.423Z,3.60
2023-02-24T15:04:46.942Z,3.03
2023-02-24T15:08:55.067Z,3.80
2023-02-24T15:13:00.849Z,3.20
2023-02-24T15:17:10.032Z,3.70
2023-02-24T15:21:20.920Z,3.70
2023-02-24T15:25:41.870Z,3.90
2023-02-24T15:29:56.623Z,3.67
2023-02-24T15:34:00.360Z,4.03
2023-02-24T15:38:02.195Z,3.03
2023-02-24T15:42:13.506Z,3.30
2023-02-24T15:46:28.107Z,3.83
2023-02-24T15:50:31.781Z,3.60
2023-02-24T15:54:35.905Z,3.80
2023-02-24T15:58:41.457Z,3.80
2023-02-24T16:02:43.348Z,3.67
2023-02-24T16:06:48.131Z,4.40
2023-02-24T16:10:49.596Z,3.83
2023-02-24T16:14:52.422Z,3.90
2023-02-24T16:18:54.108Z,4.20
2023-02-24T16:22:56.513Z,4.00
2023-02-24T16:26:58.060Z,4.30
2023-02-24T16:31:01.055Z,3.80
2023-02-24T16:35:02.516Z,3.90
2023-02-24T16:39:04.161Z,4.10
2023-02-24T16:43:05.566Z,3.50
2023-02-24T16:47:13.886Z,4.50
2023-02-24T16:51:16.023Z,4.53
2023-02-24T16:55:18.220Z,4.30
2023-02-24T16:59:19.665Z,4.67
2023-02-24T17:03:24.662Z,5.00
2023-02-24T17:07:26.074Z,4.73
2023-02-24T17:11:28.575Z,5.50
2023-02-24T17:15:30.535Z,5.73
2023-02-24T17:19:33.293Z,6.40
2023-02-24T17:23:34.706Z,6.23
2023-02-24T17:27:36.090Z,7.03
2023-02-24T17:32:33.374Z,7.27
2023-02-24T17:36:36.112Z,6.67
2023-02-24T17:40:37.511Z,7.33
2023-02-24T17:49:57.573Z,6.97
2023-02-24T17:54:00.706Z,4.80
2023-02-24T17:58:02.159Z,4.23
2023-02-24T18:02:04.450Z,3.83
2023-02-24T18:06:08.362Z,4.67
2023-02-24T18:10:12.867Z,6.07
2023-02-24T18:14:14.250Z,6.30
2023-02-24T18:18:15.698Z,7.43
2023-02-24T18:22:17.185Z,7.50
2023-02-24T18:26:23.476Z,9.60
2023-02-24T18:30:25.668Z,9.20
2023-02-24T18:34:27.063Z,10.07
2023-02-24T18:38:29.182Z,11.53
2023-02-24T18:42:31.899Z,10.67
2023-02-24T18:46:33.672Z,11.47
2023-02-24T18:50:35.177Z,11.60
2023-02-24T18:54:36.613Z,12.00
2023-02-24T18:58:40.152Z,10.87
2023-02-24T19:02:41.575Z,12.00
2023-02-24T19:06:43.548Z,10.40
2023-02-24T19:10:45.056Z,10.90
2023-02-24T19:14:50.970Z,9.97
2023-02-24T19:18:53.679Z,9.03
2023-02-24T19:22:55.071Z,8.30
2023-02-24T19:26:56.722Z,8.73
2023-02-24T19:31:01.347Z,7.23
2023-02-24T19:35:02.835Z,5.63
2023-02-24T19:39:05.422Z,4.83
2023-02-24T19:43:06.868Z,4.00
2023-02-24T19:47:09.654Z,4.60
2023-02-24T19:51:35.589Z,3.87
2023-02-24T19:55:38.605Z,3.10
2023-02-24T19:59:39.981Z,2.70
2023-02-24T20:03:43.096Z,2.63
2023-02-24T20:07:44.630Z,2.87
2023-02-24T20:11:46.706Z,2.70
2023-02-24T20:15:48.480Z,2.30
2023-02-24T20:19:51.291Z,2.17
2023-02-24T20:23:52.746Z,2.60
2023-02-24T20:27:54.162Z,1.90
2023-02-24T20:31:55.789Z,2.10
2023-02-24T20:35:58.600Z,1.83
2023-02-24T20:40:00.016Z,1.93
2023-02-24T20:44:01.469Z,1.50
2023-02-24T20:48:02.977Z,1.63
2023-02-24T20:52:05.731Z,1.53
2023-02-24T20:56:10.255Z,1.63
2023-02-24T21:00:12.657Z,1.57
2023-02-24T21:04:16.016Z,1.67
2023-02-24T21:08:18.854Z,2.00
2023-02-24T21:12:20.314Z,1.80
2023-02-24T21:16:22.424Z,2.20
2023-02-24T21:20:24.056Z,2.10
2023-02-24T21:24:27.109Z,1.93
2023-02-24T21:28:28.535Z,2.40
2023-02-24T21:32:30.015Z,2.60
2023-02-24T21:36:31.531Z,2.37
2023-02-24T21:40:35.457Z,2.50
2023-02-24T21:44:36.869Z,2.40
2023-02-24T21:48:38.995Z,2.97
2023-02-24T21:52:40.463Z,2.60
2023-02-24T21:56:43.666Z,3.00
2023-02-24T22:00:47.231Z,2.93
2023-02-24T22:04:48.662Z,3.10
2023-02-24T22:08:50.098Z,2.73
2023-02-24T22:12:56.130Z,3.30
2023-02-24T22:16:57.957Z,3.00
2023-02-24T22:20:59.586Z,3.43
2023-02-24T22:25:01.015Z,3.03
2023-02-24T22:29:03.950Z,3.10
2023-02-24T22:33:05.379Z,2.93
2023-02-24T22:37:07.519Z,3.53
2023-02-24T22:41:11.999Z,3.13
2023-02-24T22:45:15.036Z,3.23
2023-02-24T22:49:16.600Z,3.37
2023-02-24T22:53:17.984Z,3.40
2023-02-24T22:57:19.375Z,3.17
2023-02-24T23:01:24.782Z,3.33
2023-02-24T23:05:26.173Z,3.63
2023-02-24T23:09:27.704Z,3.57
2023-02-24T23:13:29.134Z,3.37
2023-02-24T23:17:32.259Z,3.47
2023-02-24T23:21:35.780Z,3.40
2023-02-24T23:25:37.205Z,3.70
2023-02-24T23:29:38.663Z,3.80
2023-02-24T23:33:41.346Z,3.47
2023-02-24T23:37:42.850Z,3.80
2023-02-24T23:41:45.454Z,3.47
2023-02-24T23:45:46.865Z,3.10
2023-02-24T23:49:49.800Z,3.33
2023-02-24T23:53:51.367Z,2.87
2023-02-24T23:57:52.830Z,3.53
